createdAt,value
2022-10-07T00:01:29.458Z,9.10
2022-10-07T00:03:58.814Z,9.10
2022-10-07T00:06:26.887Z,9.17
2022-10-07T00:08:55.388Z,9.08
2022-10-07T00:11:24.494Z,9.06
2022-10-07T00:13:54.933Z,8.98
2022-10-07T00:16:26.147Z,9.08
2022-10-07T00:18:58.834Z,8.98
2022-10-07T00:21:34.497Z,9.06
2022-10-07T00:24:03.182Z,9.03
2022-10-07T00:26:35.496Z,8.86
2022-10-07T00:29:06.151Z,8.84
2022-10-07T00:31:36.523Z,8.83
2022-10-07T00:34:07.515Z,8.84
2022-10-07T00:36:38.950Z,8.92
2022-10-07T00:39:09.498Z,8.91
2022-10-07T00:41:39.244Z,8.85
2022-10-07T00:44:34.369Z,8.81
2022-10-07T00:47:06.111Z,8.68
2022-10-07T00:49:42.187Z,8.67
2022-10-07T00:52:12.064Z,8.73
2022-10-07T00:54:40.874Z,8.71
2022-10-07T00:57:09.103Z,8.72
2022-10-07T00:59:40.055Z,8.66
2022-10-07T01:02:09.024Z,8.68
2022-10-07T01:04:37.961Z,8.60
2022-10-07T01:07:05.820Z,8.75
2022-10-07T01:09:35.135Z,8.75
2022-10-07T01:12:11.564Z,8.52
2022-10-07T01:14:50.164Z,8.62
2022-10-07T01:17:26.843Z,8.57
2022-10-07T01:20:17.833Z,8.62
2022-10-07T01:22:57.008Z,8.54
2022-10-07T01:25:41.968Z,8.62
2022-10-07T01:28:15.255Z,8.61
2022-10-07T01:30:47.838Z,8.61
2022-10-07T01:33:19.066Z,8.41
2022-10-07T01:35:49.862Z,8.33
2022-10-07T01:38:20.911Z,8.41
2022-10-07T01:40:54.295Z,8.46
2022-10-07T01:43:24.374Z,8.41
2022-10-07T01:45:53.328Z,8.42
2022-10-07T01:48:21.204Z,8.37
2022-10-07T01:50:50.500Z,8.22
2022-10-07T01:53:31.679Z,8.36
2022-10-07T01:56:18.692Z,8.35
2022-10-07T01:59:09.975Z,8.27
2022-10-07T02:01:47.042Z,8.36
2022-10-07T02:04:32.500Z,8.40
2022-10-07T02:07:13.519Z,8.24
2022-10-07T02:09:45.585Z,8.36
2022-10-07T02:12:18.759Z,8.33
2022-10-07T02:14:54.538Z,8.35
2022-10-07T02:17:26.188Z,8.22
2022-10-07T02:19:56.477Z,8.19
2022-10-07T02:22:29.107Z,8.20
2022-10-07T02:24:59.184Z,8.23
2022-10-07T02:27:31.440Z,8.18
2022-10-07T02:30:07.012Z,8.21
2022-10-07T02:32:36.494Z,8.21
2022-10-07T02:35:14.043Z,8.20
2022-10-07T02:37:45.690Z,8.26
2022-10-07T02:40:14.084Z,8.25
2022-10-07T02:42:48.986Z,8.26
2022-10-07T02:45:26.822Z,8.08
2022-10-07T02:48:00.052Z,8.11
2022-10-07T02:50:35.479Z,8.16
2022-10-07T02:53:04.439Z,8.29
2022-10-07T02:55:33.135Z,8.12
2022-10-07T02:58:05.277Z,8.11
2022-10-07T03:00:38.811Z,8.07
2022-10-07T03:03:07.045Z,8.10
2022-10-07T03:05:35.788Z,8.09
2022-10-07T03:08:05.874Z,8.02
2022-10-07T03:10:34.104Z,8.01
2022-10-07T03:13:04.944Z,7.86
2022-10-07T03:15:41.917Z,7.95
2022-10-07T03:18:26.182Z,7.95
2022-10-07T03:20:55.361Z,7.88
2022-10-07T03:23:38.331Z,7.85
2022-10-07T03:26:19.278Z,7.98
2022-10-07T03:28:49.160Z,7.92
2022-10-07T03:31:19.812Z,7.93
2022-10-07T03:33:59.840Z,7.99
2022-10-07T03:36:34.409Z,8.00
2022-10-07T03:39:03.864Z,8.00
2022-10-07T03:41:31.702Z,7.86
2022-10-07T03:43:59.757Z,7.77
2022-10-07T03:46:29.115Z,7.79
2022-10-07T03:48:56.945Z,7.72
2022-10-07T03:51:25.071Z,7.86
2022-10-07T03:53:54.564Z,7.82
2022-10-07T03:56:22.364Z,7.80
2022-10-07T03:58:50.278Z,7.84
2022-10-07T04:01:18.248Z,7.89
2022-10-07T04:03:47.775Z,7.86
2022-10-07T04:06:15.715Z,7.87
2022-10-07T04:08:44.891Z,8.06
2022-10-07T04:11:13.223Z,8.00
2022-10-07T04:13:41.277Z,7.97
2022-10-07T04:16:10.066Z,8.03
2022-10-07T04:18:41.920Z,8.11
2022-10-07T04:21:11.616Z,8.14
2022-10-07T04:23:42.126Z,8.10
2022-10-07T04:26:10.856Z,8.17
2022-10-07T04:28:39.651Z,8.19
2022-10-07T04:31:09.800Z,8.21
2022-10-07T04:33:40.780Z,8.18
2022-10-07T04:36:12.844Z,8.24
2022-10-07T04:38:42.746Z,8.25
2022-10-07T04:41:10.936Z,8.19
2022-10-07T04:43:39.198Z,8.16
2022-10-07T04:46:08.991Z,8.28
2022-10-07T04:48:36.992Z,8.27
2022-10-07T04:51:05.936Z,8.25
2022-10-07T04:53:39.656Z,8.47
2022-10-07T04:56:08.154Z,8.51
2022-10-07T04:58:37.217Z,8.48
2022-10-07T05:01:09.666Z,8.49
2022-10-07T05:03:39.539Z,8.58
2022-10-07T05:06:09.513Z,8.59
2022-10-07T05:08:38.768Z,8.62
2022-10-07T05:11:06.962Z,8.60
2022-10-07T05:13:37.843Z,8.52
2022-10-07T05:16:07.702Z,8.56
2022-10-07T05:18:35.734Z,8.62
2022-10-07T05:21:05.971Z,8.60
2022-10-07T05:23:35.880Z,8.66
2022-10-07T05:26:08.746Z,8.72
2022-10-07T05:28:36.699Z,8.72
2022-10-07T05:31:06.265Z,8.76
2022-10-07T05:33:34.384Z,8.70
2022-10-07T05:36:02.878Z,8.66
2022-10-07T05:38:32.051Z,8.75
2022-10-07T05:41:01.337Z,8.70
2022-10-07T05:43:33.022Z,8.61
2022-10-07T05:46:02.832Z,8.72
2022-10-07T05:48:36.621Z,8.74
2022-10-07T05:51:07.901Z,8.79
2022-10-07T05:53:35.866Z,8.82
2022-10-07T05:56:07.135Z,8.77
2022-10-07T05:58:36.982Z,8.76
2022-10-07T06:01:11.472Z,8.79
2022-10-07T06:03:41.801Z,8.80
2022-10-07T06:06:09.986Z,8.83
2022-10-07T06:08:38.264Z,8.87
2022-10-07T06:11:24.758Z,8.93
2022-10-07T06:13:55.964Z,8.91
2022-10-07T06:16:24.478Z,8.97
2022-10-07T06:18:53.486Z,9.05
2022-10-07T06:21:23.697Z,9.05
2022-10-07T06:23:52.892Z,9.10
2022-10-07T06:26:22.061Z,9.15
2022-10-07T06:28:51.884Z,9.19
2022-10-07T06:31:25.227Z,9.37
2022-10-07T06:33:54.016Z,9.57
2022-10-07T06:36:22.160Z,9.58
2022-10-07T06:38:51.568Z,9.60
2022-10-07T06:41:20.049Z,9.66
2022-10-07T06:43:48.450Z,9.67
2022-10-07T06:46:18.085Z,9.77
2022-10-07T06:48:47.737Z,9.91
2022-10-07T06:51:18.799Z,10.06
2022-10-07T06:53:47.233Z,10.35
2022-10-07T06:56:15.931Z,10.30
2022-10-07T06:58:44.158Z,10.49
2022-10-07T07:01:13.479Z,10.53
2022-10-07T07:03:42.410Z,10.47
2022-10-07T07:06:12.104Z,10.83
2022-10-07T07:08:41.303Z,11.36
2022-10-07T07:11:31.367Z,11.59
2022-10-07T07:13:59.980Z,11.19
2022-10-07T07:16:28.719Z,11.06
2022-10-07T07:18:59.074Z,11.06
2022-10-07T07:21:29.008Z,11.53
2022-10-07T07:23:59.194Z,11.88
2022-10-07T07:26:28.231Z,12.12
2022-10-07T07:28:58.342Z,11.89
2022-10-07T07:31:27.359Z,11.77
2022-10-07T07:33:55.462Z,11.78
2022-10-07T07:36:25.489Z,12.04
2022-10-07T07:38:56.672Z,12.28
2022-10-07T07:41:26.847Z,12.99
2022-10-07T07:43:59.866Z,13.13
2022-10-07T07:46:34.328Z,13.34
2022-10-07T07:49:05.128Z,13.75
2022-10-07T07:51:40.026Z,14.34
2022-10-07T07:54:14.199Z,14.24
2022-10-07T07:56:43.416Z,14.68
2022-10-07T07:59:12.913Z,14.37
2022-10-07T08:01:40.875Z,15.15
2022-10-07T08:04:08.711Z,15.56
2022-10-07T08:06:37.588Z,15.71
2022-10-07T08:09:05.629Z,14.70
2022-10-07T08:11:35.504Z,14.17
2022-10-07T08:14:08.015Z,13.46
2022-10-07T08:16:37.064Z,13.53
2022-10-07T08:19:05.561Z,14.73
2022-10-07T08:21:33.981Z,15.51
2022-10-07T08:24:05.031Z,15.84
2022-10-07T08:26:35.827Z,15.93
2022-10-07T08:29:04.581Z,16.46
2022-10-07T08:31:33.393Z,16.44
2022-10-07T08:34:03.159Z,15.75
2022-10-07T08:36:33.670Z,15.89
2022-10-07T08:39:05.989Z,16.66
2022-10-07T08:41:46.952Z,16.27
2022-10-07T08:44:22.809Z,17.12
2022-10-07T08:47:02.123Z,17.21
2022-10-07T08:49:37.016Z,17.03
2022-10-07T08:52:22.805Z,16.29
2022-10-07T08:54:50.624Z,16.89
2022-10-07T08:57:33.673Z,16.90
2022-10-07T09:00:09.482Z,17.44
2022-10-07T09:02:48.891Z,16.90
2022-10-07T09:05:21.992Z,17.34
2022-10-07T09:07:53.181Z,17.89
2022-10-07T09:10:32.588Z,18.13
2022-10-07T09:13:12.603Z,17.16
2022-10-07T09:16:01.519Z,16.36
2022-10-07T09:18:39.246Z,16.66
2022-10-07T09:21:17.208Z,17.64
2022-10-07T09:23:46.917Z,18.07
2022-10-07T09:26:16.744Z,17.31
2022-10-07T09:28:46.162Z,17.84
2022-10-07T09:31:16.435Z,17.98
2022-10-07T09:33:46.197Z,17.98
2022-10-07T09:36:18.965Z,18.25
2022-10-07T09:38:50.343Z,18.40
2022-10-07T09:41:20.800Z,17.62
2022-10-07T09:43:58.315Z,17.69
2022-10-07T09:46:36.516Z,17.82
2022-10-07T09:49:05.414Z,18.16
2022-10-07T09:51:35.277Z,18.35
2022-10-07T09:54:06.009Z,18.49
2022-10-07T09:56:39.353Z,18.49
2022-10-07T09:59:32.433Z,18.32
2022-10-07T10:02:02.570Z,18.30
2022-10-07T10:04:41.328Z,17.89
2022-10-07T10:07:20.375Z,17.10
2022-10-07T10:09:50.973Z,16.57
2022-10-07T10:12:21.480Z,16.43
2022-10-07T10:14:52.679Z,16.42
2022-10-07T10:17:30.006Z,16.49
2022-10-07T10:20:26.302Z,16.43
2022-10-07T10:22:54.859Z,16.55
2022-10-07T10:25:48.500Z,16.32
2022-10-07T10:28:23.673Z,16.60
2022-10-07T10:31:00.938Z,16.82
2022-10-07T10:33:36.103Z,17.26
2022-10-07T10:36:15.489Z,17.11
2022-10-07T10:38:50.971Z,16.83
2022-10-07T10:41:37.273Z,16.92
2022-10-07T10:44:34.016Z,17.00
2022-10-07T10:47:12.945Z,16.98
2022-10-07T10:49:55.217Z,17.04
2022-10-07T10:52:38.884Z,16.95
2022-10-07T10:55:19.405Z,17.04
2022-10-07T10:58:00.276Z,17.23
2022-10-07T11:00:40.151Z,17.72
2022-10-07T11:03:27.751Z,17.40
2022-10-07T11:06:00.511Z,17.81
2022-10-07T11:08:37.076Z,17.63
2022-10-07T11:11:08.826Z,17.74
2022-10-07T11:13:43.501Z,17.70
2022-10-07T11:16:19.285Z,17.14
2022-10-07T11:18:52.889Z,17.83
2022-10-07T11:21:26.170Z,17.91
2022-10-07T11:24:02.159Z,17.54
2022-10-07T11:26:36.094Z,18.87
2022-10-07T11:29:15.623Z,19.44
2022-10-07T11:31:50.928Z,20.07
2022-10-07T11:34:31.891Z,19.83
2022-10-07T11:37:07.475Z,19.81
2022-10-07T11:39:38.542Z,20.11
2022-10-07T11:42:14.243Z,20.51
2022-10-07T11:44:49.392Z,20.08
2022-10-07T11:47:22.296Z,20.25
2022-10-07T11:50:00.187Z,21.48
2022-10-07T11:52:34.734Z,20.18
2022-10-07T11:55:09.083Z,19.53
2022-10-07T11:57:43.287Z,18.84
2022-10-07T12:00:30.493Z,18.78
2022-10-07T12:03:08.012Z,20.02
2022-10-07T12:06:11.599Z,18.74
2022-10-07T12:08:41.984Z,18.39
2022-10-07T12:11:47.368Z,18.19
2022-10-07T12:14:42.768Z,18.19
2022-10-07T12:17:28.205Z,18.09
2022-10-07T12:20:33.414Z,18.12
2022-10-07T12:23:44.448Z,18.09
2022-10-07T12:26:54.729Z,17.80
2022-10-07T12:30:00.518Z,17.39
2022-10-07T12:32:56.391Z,17.27
2022-10-07T12:35:53.096Z,17.41
2022-10-07T12:38:27.047Z,16.90
2022-10-07T12:41:20.476Z,17.29
2022-10-07T12:44:06.398Z,17.37
2022-10-07T12:46:51.108Z,16.99
2022-10-07T12:49:25.558Z,17.11
2022-10-07T12:51:57.783Z,16.87
2022-10-07T12:54:35.322Z,16.92
2022-10-07T12:57:11.644Z,17.33
2022-10-07T12:59:52.825Z,17.24
2022-10-07T13:03:00.780Z,17.42
2022-10-07T13:06:04.739Z,17.25
2022-10-07T13:09:11.592Z,17.62
2022-10-07T13:12:18.123Z,17.78
2022-10-07T13:15:10.332Z,18.19
2022-10-07T13:17:48.410Z,18.48
2022-10-07T13:20:28.812Z,18.44
2022-10-07T13:22:57.428Z,18.09
2022-10-07T13:25:25.409Z,18.26
2022-10-07T13:27:57.115Z,19.12
2022-10-07T13:30:37.644Z,19.34
2022-10-07T13:33:22.903Z,18.89
2022-10-07T13:35:53.770Z,18.50
2022-10-07T13:38:23.873Z,18.77
2022-10-07T13:41:00.005Z,18.35
2022-10-07T13:43:29.952Z,17.80
2022-10-07T13:45:59.664Z,17.83
2022-10-07T13:48:34.330Z,18.05
2022-10-07T13:51:03.515Z,18.11
2022-10-07T13:53:35.453Z,18.15
2022-10-07T13:56:20.185Z,18.18
2022-10-07T13:58:48.899Z,18.17
2022-10-07T14:01:17.372Z,18.28
2022-10-07T14:04:21.024Z,18.28
2022-10-07T14:07:01.642Z,18.28
2022-10-07T14:09:38.644Z,18.35
2022-10-07T14:12:09.201Z,18.48
2022-10-07T14:14:40.864Z,18.44
2022-10-07T14:17:12.041Z,18.31
2022-10-07T14:19:41.292Z,18.67
2022-10-07T14:22:25.465Z,18.62
2022-10-07T14:25:00.042Z,17.72
2022-10-07T14:27:53.943Z,17.41
2022-10-07T14:30:56.442Z,17.21
2022-10-07T14:33:53.663Z,17.11
2022-10-07T14:36:26.246Z,17.02
2022-10-07T14:38:56.120Z,16.91
2022-10-07T14:41:24.877Z,16.90
2022-10-07T14:43:53.238Z,16.96
2022-10-07T14:46:23.539Z,17.03
2022-10-07T14:48:53.647Z,16.88
2022-10-07T14:51:26.927Z,16.84
2022-10-07T14:53:57.496Z,16.90
2022-10-07T14:56:31.054Z,16.85
2022-10-07T14:58:59.345Z,16.88
2022-10-07T15:01:29.920Z,16.71
2022-10-07T15:03:57.876Z,16.69
2022-10-07T15:06:28.410Z,16.56
2022-10-07T15:08:56.851Z,16.52
2022-10-07T15:11:25.061Z,16.41
2022-10-07T15:13:54.058Z,16.38
2022-10-07T15:16:25.938Z,16.35
2022-10-07T15:18:55.215Z,16.34
2022-10-07T15:21:24.131Z,16.33
2022-10-07T15:23:54.586Z,16.27
2022-10-07T15:26:24.631Z,16.28
2022-10-07T15:28:55.424Z,16.25
2022-10-07T15:31:24.601Z,16.24
2022-10-07T15:33:57.122Z,16.22
2022-10-07T15:36:25.311Z,16.14
2022-10-07T15:38:55.256Z,16.03
2022-10-07T15:41:35.038Z,16.04
2022-10-07T15:44:04.654Z,16.12
2022-10-07T15:46:33.223Z,16.17
2022-10-07T15:49:01.548Z,16.08
2022-10-07T15:51:31.075Z,16.03
2022-10-07T15:54:00.558Z,16.02
2022-10-07T15:56:28.490Z,16.00
2022-10-07T15:58:58.478Z,16.03
2022-10-07T16:01:27.290Z,15.99
2022-10-07T16:03:55.878Z,15.94
2022-10-07T16:06:25.647Z,15.90
2022-10-07T16:08:57.829Z,15.87
2022-10-07T16:11:28.129Z,15.80
2022-10-07T16:13:56.331Z,15.75
2022-10-07T16:16:26.055Z,15.71
2022-10-07T16:18:55.711Z,15.67
2022-10-07T16:21:27.899Z,15.59
2022-10-07T16:23:57.808Z,15.51
2022-10-07T16:26:30.262Z,15.52
2022-10-07T16:29:17.740Z,15.47
2022-10-07T16:31:47.170Z,15.48
2022-10-07T16:34:18.302Z,15.48
2022-10-07T16:36:48.898Z,15.43
2022-10-07T16:39:19.020Z,15.34
2022-10-07T16:41:49.477Z,15.30
2022-10-07T16:44:25.872Z,15.30
2022-10-07T16:47:00.696Z,15.25
2022-10-07T16:49:30.347Z,15.27
2022-10-07T16:51:59.222Z,15.26
2022-10-07T16:54:29.840Z,15.15
2022-10-07T16:56:59.323Z,15.08
2022-10-07T16:59:27.590Z,15.04
2022-10-07T17:01:57.225Z,15.11
2022-10-07T17:04:26.422Z,15.05
2022-10-07T17:06:54.759Z,14.97
2022-10-07T17:09:25.385Z,14.88
2022-10-07T17:11:53.303Z,14.72
2022-10-07T17:14:23.688Z,14.69
2022-10-07T17:16:54.657Z,14.64
2022-10-07T17:19:25.532Z,14.51
2022-10-07T17:21:55.312Z,14.53
2022-10-07T17:24:24.455Z,14.58
2022-10-07T17:26:53.487Z,14.60
2022-10-07T17:29:26.109Z,14.75
2022-10-07T17:31:54.902Z,14.75
2022-10-07T17:34:23.292Z,14.65
2022-10-07T17:36:54.294Z,14.59
2022-10-07T17:39:22.550Z,14.40
2022-10-07T17:41:50.465Z,14.44
2022-10-07T17:44:18.612Z,14.38
2022-10-07T17:46:48.937Z,14.37
2022-10-07T17:49:16.914Z,14.37
2022-10-07T17:51:45.862Z,14.37
2022-10-07T17:54:14.580Z,14.45
2022-10-07T17:56:47.735Z,14.39
2022-10-07T17:59:15.973Z,14.36
2022-10-07T18:01:45.035Z,14.27
2022-10-07T18:04:18.847Z,14.35
2022-10-07T18:06:49.102Z,14.39
2022-10-07T18:09:19.624Z,14.46
2022-10-07T18:12:05.792Z,14.36
2022-10-07T18:14:53.786Z,14.50
2022-10-07T18:17:22.831Z,14.60
2022-10-07T18:19:52.429Z,14.59
2022-10-07T18:22:20.501Z,14.56
2022-10-07T18:24:48.763Z,14.47
2022-10-07T18:27:17.011Z,14.58
2022-10-07T18:29:45.269Z,14.57
2022-10-07T18:32:13.252Z,14.52
2022-10-07T18:34:41.595Z,14.49
2022-10-07T18:37:13.118Z,14.45
2022-10-07T18:39:41.724Z,14.38
2022-10-07T18:42:09.671Z,14.43
2022-10-07T18:44:37.777Z,14.46
2022-10-07T18:47:06.692Z,14.46
2022-10-07T18:49:34.957Z,14.44
2022-10-07T18:52:05.153Z,14.43
2022-10-07T18:54:37.477Z,14.43
2022-10-07T18:57:06.576Z,14.42
2022-10-07T18:59:34.511Z,14.48
2022-10-07T19:02:02.531Z,14.35
2022-10-07T19:04:32.160Z,14.44
2022-10-07T19:06:59.987Z,14.45
2022-10-07T19:09:27.999Z,14.49
2022-10-07T19:11:57.326Z,14.45
2022-10-07T19:14:26.100Z,14.46
2022-10-07T19:16:54.458Z,14.37
2022-10-07T19:19:24.001Z,14.40
2022-10-07T19:21:53.486Z,14.19
2022-10-07T19:24:44.587Z,14.16
2022-10-07T19:27:14.278Z,14.02
2022-10-07T19:29:42.117Z,13.92
2022-10-07T19:32:09.992Z,13.95
2022-10-07T19:34:38.462Z,13.79
2022-10-07T19:37:06.401Z,13.85
2022-10-07T19:39:34.512Z,13.81
2022-10-07T19:42:02.635Z,13.67
2022-10-07T19:44:33.501Z,13.65
2022-10-07T19:47:04.180Z,13.73
2022-10-07T19:49:31.967Z,13.78
2022-10-07T19:51:59.805Z,13.79
2022-10-07T19:54:28.377Z,13.88
2022-10-07T19:56:56.209Z,13.83
2022-10-07T19:59:24.590Z,13.83
2022-10-07T20:01:57.642Z,13.72
2022-10-07T20:04:28.280Z,13.56
2022-10-07T20:06:59.107Z,13.54
2022-10-07T20:09:26.978Z,13.47
2022-10-07T20:11:55.897Z,13.49
2022-10-07T20:14:24.137Z,13.32
2022-10-07T20:16:57.116Z,13.19
2022-10-07T20:19:25.235Z,13.27
2022-10-07T20:21:55.502Z,13.16
2022-10-07T20:24:23.392Z,13.09
2022-10-07T20:26:51.452Z,13.15
2022-10-07T20:29:24.694Z,13.23
2022-10-07T20:31:56.002Z,13.20
2022-10-07T20:34:25.488Z,13.34
2022-10-07T20:36:54.898Z,13.29
2022-10-07T20:39:40.573Z,13.36
2022-10-07T20:42:25.811Z,13.19
2022-10-07T20:44:54.449Z,13.20
2022-10-07T20:47:25.983Z,13.01
2022-10-07T20:49:55.821Z,13.00
2022-10-07T20:52:26.228Z,13.03
2022-10-07T20:54:56.393Z,12.98
2022-10-07T20:57:29.248Z,13.03
2022-10-07T20:59:58.014Z,13.04
2022-10-07T21:02:28.146Z,13.07
2022-10-07T21:04:59.122Z,13.00
2022-10-07T21:07:36.672Z,13.03
2022-10-07T21:10:06.986Z,13.00
2022-10-07T21:12:49.009Z,12.96
2022-10-07T21:15:18.898Z,13.00
2022-10-07T21:17:49.168Z,12.96
2022-10-07T21:20:17.032Z,12.94
2022-10-07T21:22:45.114Z,12.83
2022-10-07T21:25:13.457Z,12.75
2022-10-07T21:27:42.512Z,12.72
2022-10-07T21:30:11.887Z,12.75
2022-10-07T21:32:39.800Z,12.81
2022-10-07T21:35:09.997Z,12.76
2022-10-07T21:37:37.792Z,12.78
2022-10-07T21:40:06.093Z,12.71
2022-10-07T21:42:33.974Z,12.73
2022-10-07T21:45:01.794Z,12.61
2022-10-07T21:47:31.685Z,12.54
2022-10-07T21:49:59.761Z,12.52
2022-10-07T21:52:31.011Z,12.53
2022-10-07T21:54:58.869Z,12.49
2022-10-07T21:57:31.045Z,12.42
2022-10-07T21:59:59.092Z,12.37
2022-10-07T22:02:29.654Z,12.44
2022-10-07T22:04:57.744Z,12.29
2022-10-07T22:07:43.457Z,12.44
2022-10-07T22:10:12.844Z,12.28
2022-10-07T22:12:40.950Z,12.22
2022-10-07T22:15:10.227Z,12.21
2022-10-07T22:17:38.054Z,12.21
2022-10-07T22:20:06.309Z,12.10
2022-10-07T22:22:34.266Z,12.02
2022-10-07T22:25:03.613Z,12.14
2022-10-07T22:27:33.173Z,12.15
2022-10-07T22:30:01.388Z,12.17
2022-10-07T22:32:36.624Z,12.22
2022-10-07T22:35:22.258Z,12.25
2022-10-07T22:37:50.160Z,12.33
2022-10-07T22:40:18.474Z,12.29
2022-10-07T22:42:54.344Z,12.33
2022-10-07T22:45:22.421Z,12.44
2022-10-07T22:47:51.224Z,12.43
2022-10-07T22:50:19.300Z,12.57
2022-10-07T22:52:47.598Z,12.59
2022-10-07T22:55:16.760Z,12.61
2022-10-07T22:57:45.037Z,12.64
2022-10-07T23:00:18.439Z,12.72
2022-10-07T23:02:46.707Z,12.76
2022-10-07T23:05:17.427Z,12.79
2022-10-07T23:07:47.771Z,12.83
2022-10-07T23:10:15.819Z,12.79
2022-10-07T23:12:51.124Z,12.92
2022-10-07T23:15:20.865Z,12.94
2022-10-07T23:17:48.685Z,12.98
2022-10-07T23:20:16.679Z,12.98
2022-10-07T23:22:44.876Z,12.95
2022-10-07T23:25:13.194Z,13.04
2022-10-07T23:27:42.062Z,13.02
2022-10-07T23:30:14.825Z,13.02
2022-10-07T23:32:46.998Z,12.98
2022-10-07T23:35:15.287Z,12.93
2022-10-07T23:37:45.455Z,12.96
2022-10-07T23:40:13.423Z,12.94
2022-10-07T23:42:41.466Z,12.93
2022-10-07T23:45:09.925Z,12.85
2022-10-07T23:47:37.800Z,12.79
2022-10-07T23:50:09.265Z,12.72
2022-10-07T23:52:37.015Z,12.66
2022-10-07T23:55:05.194Z,12.66
2022-10-07T23:57:32.977Z,12.61
